Time;durP1;ratioP1;P1;durP2;ratioP2;P2;SDS_P1;SDS_P2;PMS_P1;PMS_P2;Temp;Humidity;BMP_temperature;BMP_pressure;BME280_temperature;BME280_humidity;BME280_pressure;Samples;Min_cycle;Max_cycle;Signal;HPM_P1;HPM_P2
2023/04/14 00:01:14;;;;;;;1.88;1.20;;;;;;;;;;10558157;28;20040;-76
2023/04/14 00:06:17;;;;;;;2.47;1.10;;;;;;;;;;10573879;28;20100;-76
2023/04/14 00:11:21;;;;;;;2.85;1.60;;;;;;;;;;10558622;28;20128;-76
2023/04/14 00:16:24;;;;;;;1.83;1.20;;;;;;;;;;10543733;28;20035;-77
2023/04/14 00:21:27;;;;;;;3.72;1.20;;;;;;;;;;10568721;28;20457;-77
2023/04/14 00:26:32;;;;;;;6.73;1.93;;;;;;;;;;10560308;28;20036;-77
2023/04/14 00:31:45;;;;;;;6.85;2.25;;;;;;;;;;10546781;28;20779;-78
2023/04/14 00:36:48;;;;;;;2.13;0.95;;;;;;;;;;10558583;28;20113;-76
2023/04/14 00:41:52;;;;;;;4.22;2.03;;;;;;;;;;10551150;28;20096;-77
2023/04/14 00:46:55;;;;;;;3.13;1.77;;;;;;;;;;10554270;28;20036;-76
2023/04/14 00:51:59;;;;;;;;;;;;;;;;;;10560575;28;20073;-77
2023/04/14 00:57:06;;;;;;;6.85;2.65;;;;;;;;;;10570774;28;19919;-77
2023/04/14 01:02:17;;;;;;;4.65;1.65;;;;;;;;;;10570517;28;20039;-76
2023/04/14 01:07:20;;;;;;;4.75;1.50;;;;;;;;;;10538413;28;20064;-76
2023/04/14 01:12:31;;;;;;;2.72;1.40;;;;;;;;;;10556484;28;20040;-76
2023/04/14 01:17:37;;;;;;;3.95;1.40;;;;;;;;;;10550314;28;20040;-76
2023/04/14 01:22:47;;;;;;;5.60;1.90;;;;;;;;;;10547084;28;20377;-76
2023/04/14 01:27:57;;;;;;;3.55;2.03;;;;;;;;;;10553509;28;20043;-76
2023/04/14 01:33:04;;;;;;;4.90;1.80;;;;;;;;;;10563914;28;20036;-75
2023/04/14 01:38:08;;;;;;;4.00;1.20;;;;;;;;;;10567120;28;20036;-76
2023/04/14 01:43:13;;;;;;;3.75;1.73;;;;;;;;;;10538601;28;20042;-75
2023/04/14 01:48:17;;;;;;;2.95;1.70;;;;;;;;;;10553018;28;20511;-75
2023/04/14 01:53:20;;;;;;;;;;;;;;;;;;10564342;28;20524;-75
2023/04/14 01:58:23;;;;;;;3.72;1.30;;;;;;;;;;10560705;28;19920;-76
2023/04/14 02:03:27;;;;;;;2.85;1.20;;;;;;;;;;10574994;28;20049;-76
2023/04/14 02:08:32;;;;;;;4.45;1.38;;;;;;;;;;10539132;28;20040;-76
2023/04/14 02:13:35;;;;;;;2.28;1.30;;;;;;;;;;10563789;28;20497;-76
2023/04/14 02:18:49;;;;;;;1.90;1.10;;;;;;;;;;10533070;28;20075;-75
2023/04/14 02:23:53;;;;;;;3.90;1.50;;;;;;;;;;10559203;28;20496;-76
2023/04/14 02:29:00;;;;;;;3.40;1.20;;;;;;;;;;10557523;28;20401;-77
2023/04/14 02:34:07;;;;;;;1.70;1.20;;;;;;;;;;10554066;28;20039;-76
2023/04/14 02:39:11;;;;;;;6.57;1.60;;;;;;;;;;10562376;28;20046;-76
2023/04/14 02:44:17;;;;;;;1.48;1.15;;;;;;;;;;10546957;28;20078;-76
2023/04/14 02:49:21;;;;;;;3.17;1.27;;;;;;;;;;10552524;28;20122;-76
2023/04/14 02:54:25;;;;;;;3.58;1.65;;;;;;;;;;10576354;28;20047;-75
2023/04/14 02:59:28;;;;;;;2.70;1.67;;;;;;;;;;10565409;28;20055;-75
2023/04/14 03:04:33;;;;;;;4.00;1.70;;;;;;;;;;10549128;28;20059;-76
2023/04/14 03:09:38;;;;;;;4.22;2.00;;;;;;;;;;10528546;28;20044;-75
2023/04/14 03:14:42;;;;;;;3.65;1.75;;;;;;;;;;10547363;28;20089;-75
2023/04/14 03:19:47;;;;;;;4.80;1.67;;;;;;;;;;10540530;28;20040;-78
2023/04/14 03:24:52;;;;;;;3.80;1.40;;;;;;;;;;10544592;28;20040;-77
2023/04/14 03:29:56;;;;;;;2.92;1.50;;;;;;;;;;10551078;28;20067;-75
2023/04/14 03:35:02;;;;;;;2.95;1.40;;;;;;;;;;10553372;28;20334;-76
2023/04/14 03:40:06;;;;;;;3.47;1.80;;;;;;;;;;10549915;28;20078;-77
2023/04/14 03:45:10;;;;;;;3.47;1.45;;;;;;;;;;10567895;28;20463;-76
2023/04/14 03:50:14;;;;;;;4.05;1.80;;;;;;;;;;10570908;28;20071;-76
2023/04/14 03:55:18;;;;;;;3.58;1.65;;;;;;;;;;10564915;28;20051;-77
2023/04/14 04:00:22;;;;;;;2.25;1.40;;;;;;;;;;10549674;28;20047;-77
2023/04/14 04:05:27;;;;;;;8.52;2.53;;;;;;;;;;10577916;28;20496;-77
2023/04/14 04:10:30;;;;;;;;;;;;;;;;;;10555993;28;20070;-76
2023/04/14 04:15:34;;;;;;;4.70;2.40;;;;;;;;;;10552583;28;19935;-77
2023/04/14 04:20:40;;;;;;;3.40;1.70;;;;;;;;;;10555752;28;20368;-77
2023/04/14 04:25:44;;;;;;;4.38;2.03;;;;;;;;;;10556319;28;20166;-76
2023/04/14 04:30:48;;;;;;;8.27;3.70;;;;;;;;;;10549623;28;20101;-76
2023/04/14 04:35:52;;;;;;;11.20;3.97;;;;;;;;;;10545228;28;20448;-76
2023/04/14 04:40:55;;;;;;;5.75;2.85;;;;;;;;;;10555552;28;20301;-76
2023/04/14 04:46:21;;;;;;;7.70;3.33;;;;;;;;;;10551639;28;20134;-77
2023/04/14 04:51:27;;;;;;;7.32;3.55;;;;;;;;;;10549738;28;20040;-76
2023/04/14 04:56:30;;;;;;;10.63;4.72;;;;;;;;;;10560570;28;20408;-76
2023/04/14 05:01:33;;;;;;;12.63;4.88;;;;;;;;;;10560975;28;20047;-76
2023/04/14 05:06:37;;;;;;;11.80;5.63;;;;;;;;;;10544073;28;20097;-75
2023/04/14 05:11:40;;;;;;;9.35;4.35;;;;;;;;;;10562638;28;20070;-76
2023/04/14 05:16:44;;;;;;;11.77;5.13;;;;;;;;;;10550927;28;20424;-76
2023/04/14 05:21:49;;;;;;;10.75;4.38;;;;;;;;;;10543036;28;20040;-76
2023/04/14 05:26:53;;;;;;;13.27;5.13;;;;;;;;;;10558387;28;20492;-76
2023/04/14 05:32:16;;;;;;;12.15;5.35;;;;;;;;;;10539271;28;20039;-76
2023/04/14 05:37:20;;;;;;;12.27;4.82;;;;;;;;;;10544554;28;20047;-75
2023/04/14 05:42:22;;;;;;;;;;;;;;;;;;10559512;28;20058;-78
2023/04/14 05:47:27;;;;;;;10.55;4.50;;;;;;;;;;10560767;28;19920;-77
2023/04/14 05:52:31;;;;;;;9.93;4.55;;;;;;;;;;10544976;28;20069;-76
2023/04/14 05:57:34;;;;;;;7.25;3.35;;;;;;;;;;10543197;28;20044;-76
2023/04/14 06:02:38;;;;;;;9.85;4.47;;;;;;;;;;10566219;28;20039;-76
2023/04/14 06:07:42;;;;;;;10.88;4.80;;;;;;;;;;10545046;28;20100;-76
2023/04/14 06:12:44;;;;;;;11.85;4.85;;;;;;;;;;10563571;28;20036;-76
2023/04/14 06:17:47;;;;;;;16.00;5.30;;;;;;;;;;10566391;28;20043;-77
2023/04/14 06:22:51;;;;;;;13.68;4.90;;;;;;;;;;10576853;27;20043;-78
2023/04/14 06:27:55;;;;;;;9.88;4.60;;;;;;;;;;10558924;28;20028;-77
2023/04/14 06:33:00;;;;;;;10.40;3.92;;;;;;;;;;10565923;28;20043;-77
2023/04/14 06:38:04;;;;;;;13.25;5.18;;;;;;;;;;10560807;28;20039;-75
2023/04/14 06:43:09;;;;;;;15.70;4.97;;;;;;;;;;10551950;28;20092;-77
2023/04/14 06:48:12;;;;;;;;;;;;;;;;;;10560159;28;20032;-76
2023/04/14 06:53:24;;;;;;;11.52;4.07;;;;;;;;;;10545879;28;20015;-77
2023/04/14 06:58:28;;;;;;;9.55;3.58;;;;;;;;;;10575597;28;20043;-76
2023/04/14 07:03:31;;;;;;;10.18;4.40;;;;;;;;;;10580524;28;20075;-77
2023/04/14 07:08:36;;;;;;;9.50;3.30;;;;;;;;;;10574510;28;20096;-74
2023/04/14 07:13:38;;;;;;;;;;;;;;;;;;10578693;28;20126;-75
2023/04/14 07:18:41;;;;;;;11.23;3.90;;;;;;;;;;10555287;28;19920;-75
2023/04/14 07:23:45;;;;;;;8.65;3.90;;;;;;;;;;10564626;28;20052;-76
2023/04/14 07:28:48;;;;;;;9.10;4.22;;;;;;;;;;10575134;28;20052;-77
2023/04/14 07:33:51;;;;;;;9.75;3.70;;;;;;;;;;10577204;28;20123;-77
2023/04/14 07:38:56;;;;;;;9.60;3.00;;;;;;;;;;10581952;28;20052;-76
2023/04/14 07:43:59;;;;;;;5.90;3.05;;;;;;;;;;10568233;28;20047;-75
2023/04/14 07:49:02;;;;;;;7.53;3.00;;;;;;;;;;10566177;28;20077;-76
2023/04/14 07:54:08;;;;;;;6.97;3.55;;;;;;;;;;10579395;28;20041;-76
2023/04/14 07:59:11;;;;;;;7.55;3.42;;;;;;;;;;10560058;28;20043;-76
2023/04/14 08:04:14;;;;;;;8.38;3.80;;;;;;;;;;10581334;28;20043;-74
2023/04/14 08:09:19;;;;;;;8.97;3.10;;;;;;;;;;10550501;28;20044;-77
2023/04/14 08:14:22;;;;;;;7.07;2.97;;;;;;;;;;10575655;28;20040;-75
2023/04/14 08:19:26;;;;;;;6.10;2.88;;;;;;;;;;10550391;28;20035;-75
2023/04/14 08:24:30;;;;;;;8.55;2.80;;;;;;;;;;10571125;28;20056;-76
2023/04/14 08:29:33;;;;;;;;;;;;;;;;;;10572390;28;20123;-77
2023/04/14 08:34:36;;;;;;;4.82;2.25;;;;;;;;;;10577821;28;19985;-76
2023/04/14 08:39:40;;;;;;;7.88;3.38;;;;;;;;;;10562059;28;20455;-77
2023/04/14 08:44:43;;;;;;;6.15;2.35;;;;;;;;;;10565679;28;20047;-78
2023/04/14 08:49:53;;;;;;;6.68;3.47;;;;;;;;;;10561891;28;20038;-75
2023/04/14 08:55:00;;;;;;;6.00;2.75;;;;;;;;;;10577517;28;20040;-77
2023/04/14 09:00:03;;;;;;;12.23;2.88;;;;;;;;;;10548792;28;20028;-80
2023/04/14 09:05:07;;;;;;;7.25;3.08;;;;;;;;;;10564423;28;20039;-78
2023/04/14 09:10:11;;;;;;;7.97;3.33;;;;;;;;;;10571974;28;20380;-78
2023/04/14 09:15:15;;;;;;;7.35;2.40;;;;;;;;;;10577435;28;20549;-78
2023/04/14 09:20:18;;;;;;;6.43;2.70;;;;;;;;;;10546306;28;20042;-77
2023/04/14 09:25:43;;;;;;;6.25;3.08;;;;;;;;;;10553100;28;20062;-76
2023/04/14 09:30:46;;;;;;;5.20;2.60;;;;;;;;;;10543742;28;20028;-77
2023/04/14 09:35:53;;;;;;;9.00;3.55;;;;;;;;;;10574094;28;20075;-76
2023/04/14 09:40:57;;;;;;;4.95;2.72;;;;;;;;;;10557351;28;20040;-77
2023/04/14 09:46:09;;;;;;;;;;;;;;;;;;10576105;28;20047;-76
2023/04/14 09:51:13;;;;;;;7.10;3.17;;;;;;;;;;10566785;28;20019;-76
2023/04/14 09:56:18;;;;;;;4.03;2.40;;;;;;;;;;10571441;28;20454;-77
2023/04/14 10:01:21;;;;;;;4.20;1.60;;;;;;;;;;10546560;28;20048;-78
2023/04/14 10:06:25;;;;;;;3.22;1.85;;;;;;;;;;10565094;28;20052;-77
2023/04/14 10:11:31;;;;;;;6.25;2.40;;;;;;;;;;10550151;28;20036;-76
2023/04/14 10:16:44;;;;;;;7.30;3.80;;;;;;;;;;10559355;28;20039;-76
2023/04/14 10:21:48;;;;;;;5.20;2.63;;;;;;;;;;10568682;28;20122;-77
2023/04/14 10:26:52;;;;;;;6.97;3.30;;;;;;;;;;10556247;28;20724;-79
2023/04/14 10:31:59;;;;;;;6.47;3.10;;;;;;;;;;10551260;28;20439;-78
2023/04/14 10:37:02;;;;;;;;;;;;;;;;;;10567976;28;20411;-77
2023/04/14 10:42:05;;;;;;;;;;;;;;;;;;10566221;28;19924;-76
2023/04/14 10:47:24;;;;;;;4.37;2.00;;;;;;;;;;10567074;28;19924;-77
2023/04/14 10:52:27;;;;;;;;;;;;;;;;;;10568072;28;20052;-76
2023/04/14 10:57:30;;;;;;;3.55;1.75;;;;;;;;;;10544873;28;19920;-77
2023/04/14 11:02:53;;;;;;;5.28;2.28;;;;;;;;;;10582732;28;20067;-77
2023/04/14 11:07:57;;;;;;;3.40;2.13;;;;;;;;;;10564623;28;20203;-78
2023/04/14 11:13:04;;;;;;;;;;;;;;;;;;10573848;28;20146;-77
2023/04/14 11:18:07;;;;;;;;;;;;;;;;;;10568001;28;20296;-75
2023/04/14 11:23:09;;;;;;;;;;;;;;;;;;10584254;28;19971;-78
2023/04/14 11:28:12;;;;;;;;;;;;;;;;;;10580517;28;19949;-75
2023/04/14 11:33:16;;;;;;;3.90;2.30;;;;;;;;;;10554948;28;19924;-77
2023/04/14 11:38:20;;;;;;;3.65;2.30;;;;;;;;;;10556820;28;20050;-77
2023/04/14 11:43:22;;;;;;;;;;;;;;;;;;10544213;28;20055;-77
2023/04/14 11:48:28;;;;;;;7.78;2.40;;;;;;;;;;10579585;28;19920;-77
2023/04/14 11:53:38;;;;;;;3.13;2.00;;;;;;;;;;10564754;28;20047;-77
2023/04/14 11:58:41;;;;;;;;;;;;;;;;;;10526091;28;20434;-77
2023/04/14 12:03:48;;;;;;;2.72;1.70;;;;;;;;;;10570085;28;19989;-76
2023/04/14 12:08:52;;;;;;;1.92;1.50;;;;;;;;;;10575854;28;20651;-77
2023/04/14 12:13:56;;;;;;;3.53;2.10;;;;;;;;;;10571249;28;20047;-77
2023/04/14 12:19:00;;;;;;;3.33;1.70;;;;;;;;;;10545395;28;20043;-77
2023/04/14 12:24:04;;;;;;;2.15;1.48;;;;;;;;;;10559568;28;20527;-78
2023/04/14 12:29:08;;;;;;;2.53;1.38;;;;;;;;;;10572355;28;20038;-77
2023/04/14 12:34:17;;;;;;;3.33;1.52;;;;;;;;;;10576921;28;20040;-75
2023/04/14 12:39:20;;;;;;;2.55;1.40;;;;;;;;;;10562893;28;20102;-75
2023/04/14 12:44:24;;;;;;;;;;;;;;;;;;10577148;28;20078;-78
2023/04/14 12:49:36;;;;;;;2.97;1.35;;;;;;;;;;10571297;28;19920;-76
2023/04/14 12:54:45;;;;;;;1.75;1.60;;;;;;;;;;10562002;28;20070;-78
2023/04/14 12:59:49;;;;;;;3.40;2.13;;;;;;;;;;10533831;28;20527;-77
2023/04/14 13:04:53;;;;;;;4.40;2.47;;;;;;;;;;10560613;28;20444;-77
2023/04/14 13:09:57;;;;;;;4.50;2.30;;;;;;;;;;10559889;28;20419;-77
2023/04/14 13:15:00;;;;;;;2.08;1.20;;;;;;;;;;10556654;28;20533;-78
2023/04/14 13:20:04;;;;;;;1.40;0.90;;;;;;;;;;10560403;28;20419;-76
2023/04/14 13:25:08;;;;;;;2.13;0.82;;;;;;;;;;10550201;28;20339;-77
2023/04/14 13:35:56;;;;;;;;;;;;;;;;;;10512099;28;19908;-77
2023/04/14 13:41:01;;;;;;;1.20;0.60;;;;;;;;;;10535469;28;19989;-78
2023/04/14 13:46:03;;;;;;;0.30;0.30;;;;;;;;;;10532996;28;20070;-77
2023/04/14 13:51:06;;;;;;;0.60;0.60;;;;;;;;;;10537024;28;20036;-77
2023/04/14 13:56:10;;;;;;;1.87;0.90;;;;;;;;;;10534893;28;20050;-76
2023/04/14 14:01:14;;;;;;;0.63;0.63;;;;;;;;;;10527180;28;20040;-77
2023/04/14 14:06:17;;;;;;;2.83;0.97;;;;;;;;;;10531331;28;20542;-78
2023/04/14 14:11:22;;;;;;;2.17;1.17;;;;;;;;;;10531404;28;20085;-77
2023/04/14 14:16:24;;;;;;;2.50;1.17;;;;;;;;;;10535692;28;20040;-77
2023/04/14 14:21:30;;;;;;;3.00;1.30;;;;;;;;;;10535794;28;20039;-76
2023/04/14 14:26:34;;;;;;;1.70;1.40;;;;;;;;;;10544435;28;20044;-76
2023/04/14 14:31:37;;;;;;;2.72;1.50;;;;;;;;;;10562634;28;20048;-77
2023/04/14 14:36:40;;;;;;;3.25;1.60;;;;;;;;;;10572426;28;20048;-77
2023/04/14 14:41:45;;;;;;;2.13;1.42;;;;;;;;;;10572534;28;20063;-77
2023/04/14 14:46:47;;;;;;;11.43;5.82;;;;;;;;;;10579103;28;20409;-77
2023/04/14 14:51:51;;;;;;;3.70;1.40;;;;;;;;;;10579148;28;20599;-75
2023/04/14 14:56:56;;;;;;;4.43;1.80;;;;;;;;;;10566012;28;20446;-76
2023/04/14 15:02:00;;;;;;;5.50;2.83;;;;;;;;;;10557550;28;20464;-76
2023/04/14 15:07:03;;;;;;;2.22;1.30;;;;;;;;;;10551944;28;20462;-77
2023/04/14 15:12:06;;;;;;;;;;;;;;;;;;10549801;28;20048;-77
2023/04/14 15:17:09;;;;;;;;;;;;;;;;;;10566015;28;19920;-75
2023/04/14 15:22:12;;;;;;;;;;;;;;;;;;10557806;28;19920;-78
2023/04/14 15:27:16;;;;;;;19.70;6.38;;;;;;;;;;10550188;28;19923;-79
2023/04/14 15:32:23;;;;;;;2.67;1.23;;;;;;;;;;10549510;28;20144;-77
2023/04/14 15:37:27;;;;;;;7.35;2.38;;;;;;;;;;10560278;28;20121;-77
2023/04/14 15:42:31;;;;;;;3.45;1.60;;;;;;;;;;10562540;27;20039;-78
2023/04/14 15:47:33;;;;;;;5.80;1.92;;;;;;;;;;10557290;28;20082;-75
2023/04/14 15:52:36;;;;;;;4.20;1.77;;;;;;;;;;10568806;28;20071;-76
2023/04/14 15:57:41;;;;;;;3.20;1.20;;;;;;;;;;10587206;28;20058;-75
2023/04/14 16:02:45;;;;;;;3.08;2.15;;;;;;;;;;10565563;28;20041;-75
2023/04/14 16:07:48;;;;;;;4.90;1.40;;;;;;;;;;10577906;28;20063;-77
2023/04/14 16:12:52;;;;;;;1.10;0.73;;;;;;;;;;10562918;28;20068;-76
2023/04/14 16:17:55;;;;;;;1.95;0.93;;;;;;;;;;10568431;28;20330;-76
2023/04/14 16:22:59;;;;;;;3.40;1.20;;;;;;;;;;10561432;28;20040;-76
2023/04/14 16:28:03;;;;;;;3.67;1.73;;;;;;;;;;10559394;28;20409;-76
2023/04/14 16:33:06;;;;;;;3.78;1.95;;;;;;;;;;10549802;28;20036;-75
2023/04/14 16:38:10;;;;;;;3.75;2.00;;;;;;;;;;10566765;28;20032;-75
2023/04/14 16:43:24;;;;;;;3.92;1.52;;;;;;;;;;10557563;28;20039;-77
2023/04/14 16:48:27;;;;;;;2.33;1.40;;;;;;;;;;10562360;28;20063;-77
2023/04/14 16:53:31;;;;;;;5.55;1.88;;;;;;;;;;10560021;28;20042;-76
2023/04/14 16:58:36;;;;;;;1.33;0.90;;;;;;;;;;10560445;28;20040;-76
2023/04/14 17:03:40;;;;;;;3.42;2.00;;;;;;;;;;10549268;28;20040;-74
2023/04/14 17:08:43;;;;;;;4.17;1.93;;;;;;;;;;10552904;28;20546;-76
2023/04/14 17:13:47;;;;;;;3.27;1.87;;;;;;;;;;10580427;28;20543;-76
2023/04/14 17:18:52;;;;;;;6.40;2.83;;;;;;;;;;10568482;28;20044;-77
2023/04/14 17:23:55;;;;;;;2.83;1.45;;;;;;;;;;10560369;28;20131;-76
2023/04/14 17:29:00;;;;;;;3.25;1.73;;;;;;;;;;10557549;28;20101;-78
2023/04/14 17:34:09;;;;;;;5.07;2.20;;;;;;;;;;10539890;28;20044;-78
2023/04/14 17:39:12;;;;;;;3.00;1.20;;;;;;;;;;10567296;28;20114;-78
2023/04/14 17:44:16;;;;;;;7.22;1.17;;;;;;;;;;10555985;28;20130;-77
2023/04/14 17:49:21;;;;;;;5.78;2.50;;;;;;;;;;10545597;28;20040;-78
2023/04/14 17:54:24;;;;;;;7.38;2.70;;;;;;;;;;10557233;28;20148;-78
2023/04/14 17:59:28;;;;;;;4.57;2.08;;;;;;;;;;10569149;28;20040;-78
2023/04/14 18:04:31;;;;;;;8.02;2.53;;;;;;;;;;10551194;28;20071;-78
2023/04/14 18:09:35;;;;;;;2.28;1.77;;;;;;;;;;10550032;28;20443;-78
2023/04/14 18:14:40;;;;;;;4.20;2.10;;;;;;;;;;10566212;28;20108;-78
2023/04/14 18:19:43;;;;;;;5.40;2.97;;;;;;;;;;10556113;28;20503;-78
2023/04/14 18:24:46;;;;;;;3.95;1.73;;;;;;;;;;10551869;28;20043;-78
2023/04/14 18:29:54;;;;;;;3.53;2.08;;;;;;;;;;10555327;28;20136;-78
2023/04/14 18:34:57;;;;;;;9.55;2.97;;;;;;;;;;10550280;28;20475;-78
2023/04/14 18:40:00;;;;;;;4.38;1.85;;;;;;;;;;10547493;28;20052;-77
2023/04/14 18:45:04;;;;;;;4.53;2.30;;;;;;;;;;10559668;28;20089;-77
2023/04/14 18:50:08;;;;;;;6.47;2.78;;;;;;;;;;10553659;28;20040;-77
2023/04/14 18:55:10;;;;;;;12.53;4.33;;;;;;;;;;10556577;28;20042;-78
2023/04/14 19:00:15;;;;;;;12.77;5.53;;;;;;;;;;10566609;28;20038;-78
2023/04/14 19:05:29;;;;;;;8.70;3.58;;;;;;;;;;10550275;28;20044;-78
2023/04/14 19:10:33;;;;;;;6.63;3.80;;;;;;;;;;10566726;28;20504;-77
2023/04/14 19:15:39;;;;;;;9.75;4.22;;;;;;;;;;10556047;28;20118;-78
2023/04/14 19:20:47;;;;;;;11.50;4.22;;;;;;;;;;10566296;28;20036;-79
2023/04/14 19:25:53;;;;;;;;;;;;;;;;;;10545863;28;20123;-79
2023/04/14 19:30:57;;;;;;;10.23;4.20;;;;;;;;;;10570941;28;19919;-79
2023/04/14 19:36:01;;;;;;;16.15;7.03;;;;;;;;;;10567482;28;20069;-79
2023/04/14 19:41:03;;;;;;;2.63;1.25;;;;;;;;;;10568754;28;20181;-79
2023/04/14 19:46:09;;;;;;;7.72;3.10;;;;;;;;;;10544895;28;20032;-79
2023/04/14 19:51:13;;;;;;;6.72;3.28;;;;;;;;;;10564253;28;20459;-78
2023/04/14 19:56:15;;;;;;;5.82;2.83;;;;;;;;;;10586435;28;20428;-79
2023/04/14 20:01:22;;;;;;;10.15;3.75;;;;;;;;;;10562420;28;20050;-80
2023/04/14 20:06:25;;;;;;;9.73;3.28;;;;;;;;;;10556102;28;20085;-78
2023/04/14 20:11:29;;;;;;;8.80;3.93;;;;;;;;;;10571489;28;20122;-79
2023/04/14 20:16:34;;;;;;;13.38;3.80;;;;;;;;;;10560283;28;20115;-80
2023/04/14 20:21:37;;;;;;;;;;;;;;;;;;10571465;28;20105;-79
2023/04/14 20:26:42;;;;;;;1.48;0.90;;;;;;;;;;10592564;27;20291;-79
2023/04/14 20:31:47;;;;;;;5.60;2.83;;;;;;;;;;10569158;28;20065;-79
2023/04/14 20:36:52;;;;;;;;;;;;;;;;;;10578638;28;20039;-79
2023/04/14 20:41:55;;;;;;;4.18;1.80;;;;;;;;;;10596964;28;19920;-79
2023/04/14 20:47:00;;;;;;;1.10;0.93;;;;;;;;;;10575118;28;20052;-80
2023/04/14 20:52:04;;;;;;;7.03;3.17;;;;;;;;;;10573515;28;20035;-79
2023/04/14 20:57:07;;;;;;;3.17;1.38;;;;;;;;;;10578534;28;20055;-78
2023/04/14 21:02:11;;;;;;;13.65;3.40;;;;;;;;;;10549269;28;20055;-79
2023/04/14 21:07:15;;;;;;;6.57;1.85;;;;;;;;;;10554482;28;20092;-77
2023/04/14 21:12:18;;;;;;;5.60;2.83;;;;;;;;;;10551132;28;20375;-79
2023/04/14 21:17:23;;;;;;;4.85;2.65;;;;;;;;;;10553956;28;20092;-79
2023/04/14 21:22:26;;;;;;;7.05;3.22;;;;;;;;;;10567105;28;20046;-78
2023/04/14 21:27:29;;;;;;;7.35;3.47;;;;;;;;;;10575390;28;20095;-77
2023/04/14 21:32:33;;;;;;;8.30;3.58;;;;;;;;;;10552096;28;20032;-77
2023/04/14 21:37:37;;;;;;;6.75;3.25;;;;;;;;;;10575324;28;20048;-78
2023/04/14 21:42:40;;;;;;;10.65;4.13;;;;;;;;;;10581936;28;20040;-79
2023/04/14 21:47:44;;;;;;;7.38;3.60;;;;;;;;;;10591038;28;20423;-78
2023/04/14 21:52:57;;;;;;;4.25;2.25;;;;;;;;;;10566891;28;20053;-79
2023/04/14 21:58:02;;;;;;;4.95;2.40;;;;;;;;;;10551909;28;20135;-78
2023/04/14 22:03:07;;;;;;;8.38;3.53;;;;;;;;;;10546066;28;20089;-78
2023/04/14 22:08:12;;;;;;;3.85;1.65;;;;;;;;;;10562797;28;20497;-79
2023/04/14 22:13:15;;;;;;;8.45;2.17;;;;;;;;;;10558289;28;20044;-79
2023/04/14 22:18:20;;;;;;;5.70;2.23;;;;;;;;;;10547220;28;20039;-80
2023/04/14 22:23:33;;;;;;;4.18;1.88;;;;;;;;;;10573588;28;20119;-79
2023/04/14 22:28:36;;;;;;;8.88;1.90;;;;;;;;;;10535690;28;20054;-78
2023/04/14 22:33:40;;;;;;;6.35;2.03;;;;;;;;;;10566045;28;20040;-79
2023/04/14 22:38:47;;;;;;;;;;;;;;;;;;10568070;28;20039;-79
2023/04/14 22:43:50;;;;;;;6.53;2.50;;;;;;;;;;10548842;28;19928;-79
2023/04/14 22:48:55;;;;;;;6.32;2.67;;;;;;;;;;10574387;28;20039;-78
2023/04/14 22:53:58;;;;;;;9.57;2.30;;;;;;;;;;10554673;28;20067;-78
2023/04/14 22:59:02;;;;;;;5.90;2.00;;;;;;;;;;10547299;28;20380;-79
2023/04/14 23:04:06;;;;;;;2.95;1.52;;;;;;;;;;10554996;28;20101;-78
2023/04/14 23:09:08;;;;;;;;;;;;;;;;;;10538918;28;20071;-78
2023/04/14 23:14:12;;;;;;;5.00;1.85;;;;;;;;;;10569909;28;19927;-78
2023/04/14 23:19:16;;;;;;;7.28;2.30;;;;;;;;;;10565426;28;20378;-78
2023/04/14 23:24:19;;;;;;;8.45;2.85;;;;;;;;;;10565998;28;20043;-78
2023/04/14 23:29:23;;;;;;;5.07;1.98;;;;;;;;;;10568661;28;20100;-79
2023/04/14 23:34:28;;;;;;;8.23;3.10;;;;;;;;;;10548398;28;20513;-77
2023/04/14 23:39:32;;;;;;;4.97;2.58;;;;;;;;;;10567555;28;20051;-78
2023/04/14 23:44:35;;;;;;;8.03;2.60;;;;;;;;;;10571753;28;20051;-78
2023/04/14 23:49:39;;;;;;;6.90;2.85;;;;;;;;;;10564114;28;20039;-79
2023/04/14 23:54:42;;;;;;;7.90;2.70;;;;;;;;;;10546821;28;20036;-78
2023/04/14 23:59:45;;;;;;;7.60;2.80;;;;;;;;;;10544945;28;20044;-77
